Terminal Aerodrome Forecast
Issued by NWS Pittsburgh, PA

Current Version | Previous Version | Graphics & Text | Print | Product List | Glossary On
Versions: 1 2 3 4 5 6 7 8 9 10 11 12 13 14 15 16 17 18 19 20 21 22 23 24 25 26 27 28 29 30 31 32 33 34 35 36
697
FTUS41 KPBZ 261446 AAB
TAFPIT
TAF AMD
KPIT 261446Z 2615/2718 25012G20KT P6SM BKN050
     FM261800 28012G23KT P6SM VCTS BKN045CB
     FM262100 32011KT P6SM BKN040
     FM270400 36009KT P6SM BKN015
     FM271500 04007KT P6SM SCT200=

USA.gov is the U.S. government's official web portal to all federal, state and local government web resources and services.